createdAt,value
2019-04-07T00:00:09.853Z,8.36
2019-04-07T00:01:14.573Z,8.35
2019-04-07T00:02:18.549Z,8.34
2019-04-07T00:03:23.044Z,8.32
2019-04-07T00:04:27.179Z,8.30
2019-04-07T00:05:31.221Z,8.29
2019-04-07T00:06:35.459Z,8.27
2019-04-07T00:07:40.191Z,8.26
2019-04-07T00:08:44.468Z,8.25
2019-04-07T00:09:48.176Z,8.24
2019-04-07T00:10:52.831Z,8.23
2019-04-07T00:11:56.649Z,8.23
2019-04-07T00:13:00.979Z,8.22
2019-04-07T00:14:05.641Z,8.21
2019-04-07T00:15:09.517Z,8.20
2019-04-07T00:16:13.877Z,8.19
2019-04-07T00:17:18.119Z,8.18
2019-04-07T00:18:22.504Z,8.18
2019-04-07T00:19:27.181Z,8.17
2019-04-07T00:20:30.917Z,8.15
2019-04-07T00:21:35.303Z,8.14
2019-04-07T00:22:39.362Z,8.13
2019-04-07T00:23:44.126Z,8.12
2019-04-07T00:24:47.980Z,8.11
2019-04-07T00:25:52.251Z,8.11
2019-04-07T00:26:56.504Z,8.10
2019-04-07T00:28:00.890Z,8.10
2019-04-07T00:29:05.112Z,8.10
2019-04-07T00:30:09.356Z,8.09
2019-04-07T00:31:13.599Z,8.09
2019-04-07T00:32:17.744Z,8.09
2019-04-07T00:33:22.078Z,8.08
2019-04-07T00:34:26.216Z,8.07
2019-04-07T00:35:32.631Z,8.06
2019-04-07T00:36:35.076Z,8.05
2019-04-07T00:37:39.115Z,8.05
2019-04-07T00:38:43.787Z,8.05
2019-04-07T00:39:47.709Z,8.05
2019-04-07T00:40:52.494Z,8.04
2019-04-07T00:41:56.577Z,8.03
2019-04-07T00:43:00.832Z,8.02
2019-04-07T00:44:05.046Z,8.02
2019-04-07T00:45:09.758Z,8.01
2019-04-07T00:46:13.630Z,8.00
2019-04-07T00:47:17.524Z,7.98
2019-04-07T00:48:22.156Z,7.97
2019-04-07T00:49:26.080Z,7.97
2019-04-07T00:50:30.533Z,7.96
2019-04-07T00:51:34.533Z,7.96
2019-04-07T00:52:39.145Z,7.96
2019-04-07T00:53:43.070Z,7.96
2019-04-07T00:54:47.861Z,7.95
2019-04-07T00:55:51.555Z,7.93
2019-04-07T00:56:55.805Z,7.91
2019-04-07T00:58:00.433Z,7.89
2019-04-07T00:59:04.447Z,7.87
2019-04-07T01:00:08.574Z,7.86
2019-04-07T01:01:12.716Z,7.83
2019-04-07T01:02:17.108Z,7.81
2019-04-07T01:03:21.211Z,7.79
2019-04-07T01:04:25.556Z,7.77
2019-04-07T01:05:36.220Z,7.76
2019-04-07T01:06:34.097Z,7.75
2019-04-07T01:07:38.892Z,7.75
2019-04-07T01:08:42.492Z,7.75
2019-04-07T01:09:46.714Z,7.74
2019-04-07T01:10:50.999Z,7.74
2019-04-07T01:11:55.127Z,7.73
2019-04-07T01:13:00.067Z,7.73
2019-04-07T01:14:03.800Z,7.72
2019-04-07T01:15:07.907Z,7.72
2019-04-07T01:16:12.217Z,7.72
2019-04-07T01:17:16.479Z,7.73
2019-04-07T01:18:20.764Z,7.72
2019-04-07T01:19:25.322Z,7.71
2019-04-07T01:20:29.588Z,7.69
2019-04-07T01:21:33.536Z,7.68
2019-04-07T01:22:37.749Z,7.67
2019-04-07T01:23:42.463Z,7.65
2019-04-07T01:24:46.141Z,7.63
2019-04-07T01:25:50.948Z,7.62
2019-04-07T01:26:54.727Z,7.60
2019-04-07T01:27:59.325Z,7.59
2019-04-07T01:29:03.283Z,7.58
2019-04-07T01:30:07.485Z,7.56
2019-04-07T01:31:12.207Z,7.54
2019-04-07T01:32:16.016Z,7.53
2019-04-07T01:33:20.742Z,7.52
2019-04-07T01:34:25.008Z,7.52
2019-04-07T01:35:28.960Z,7.51
2019-04-07T01:36:33.775Z,7.49
2019-04-07T01:37:37.521Z,7.48
2019-04-07T01:38:42.198Z,7.46
2019-04-07T01:39:46.001Z,7.45
2019-04-07T01:40:50.752Z,7.44
2019-04-07T01:41:54.345Z,7.43
2019-04-07T01:42:58.853Z,7.42
2019-04-07T01:44:03.528Z,7.40
2019-04-07T01:45:07.287Z,7.39
2019-04-07T01:46:11.221Z,7.38
2019-04-07T01:47:15.695Z,7.37
2019-04-07T01:48:20.369Z,7.37
2019-04-07T01:49:24.756Z,7.36
2019-04-07T01:50:28.591Z,7.36
2019-04-07T01:51:33.335Z,7.35
2019-04-07T01:52:37.005Z,7.35
2019-04-07T01:53:41.953Z,7.33
2019-04-07T01:54:45.648Z,7.32
2019-04-07T01:55:49.925Z,7.32
2019-04-07T01:56:54.092Z,7.30
2019-04-07T01:57:58.340Z,7.29
2019-04-07T01:59:02.616Z,7.28
2019-04-07T02:00:07.247Z,7.27
2019-04-07T02:01:10.933Z,7.26
2019-04-07T02:02:15.889Z,7.24
2019-04-07T02:03:19.588Z,7.23
2019-04-07T02:04:23.811Z,7.22
2019-04-07T02:05:28.739Z,7.20
2019-04-07T02:06:32.378Z,7.18
2019-04-07T02:07:37.449Z,7.17
2019-04-07T02:08:41.678Z,7.16
2019-04-07T02:09:45.262Z,7.14
2019-04-07T02:10:49.603Z,7.12
2019-04-07T02:11:53.976Z,7.11
2019-04-07T02:12:57.937Z,7.10
2019-04-07T02:14:02.208Z,7.09
2019-04-07T02:15:06.439Z,7.08
2019-04-07T02:16:10.512Z,7.08
2019-04-07T02:17:14.876Z,7.08
2019-04-07T02:18:19.014Z,7.07
2019-04-07T02:19:24.103Z,7.07
2019-04-07T02:20:27.941Z,7.08
2019-04-07T02:21:31.865Z,7.07
2019-04-07T02:22:36.601Z,7.07
2019-04-07T02:23:40.550Z,7.06
2019-04-07T02:24:45.328Z,7.06
2019-04-07T02:25:48.830Z,7.06
2019-04-07T02:26:53.218Z,7.06
2019-04-07T02:27:57.404Z,7.05
2019-04-07T02:29:01.673Z,7.04
2019-04-07T02:30:06.077Z,7.04
2019-04-07T02:31:10.077Z,7.03
2019-04-07T02:32:15.272Z,7.03
2019-04-07T02:33:18.686Z,7.04
2019-04-07T02:34:22.923Z,7.04
2019-04-07T02:35:28.186Z,7.04
2019-04-07T02:36:32.044Z,7.04
2019-04-07T02:37:35.772Z,7.04
2019-04-07T02:38:40.039Z,7.04
2019-04-07T02:39:44.294Z,7.04
2019-04-07T02:40:48.782Z,7.04
2019-04-07T02:41:53.650Z,7.04
2019-04-07T02:42:57.532Z,7.04
2019-04-07T02:44:01.610Z,7.04
2019-04-07T02:45:05.761Z,7.05
2019-04-07T02:46:10.928Z,7.05
2019-04-07T02:47:14.785Z,7.05
2019-04-07T02:48:18.312Z,7.04
2019-04-07T02:49:22.733Z,7.03
2019-04-07T02:50:26.940Z,7.02
2019-04-07T02:51:31.940Z,7.00
2019-04-07T02:52:35.752Z,6.99
2019-04-07T02:53:39.659Z,6.99
2019-04-07T02:54:44.475Z,6.98
2019-04-07T02:55:48.415Z,6.97
2019-04-07T02:56:52.541Z,6.97
2019-04-07T02:57:56.708Z,6.97
2019-04-07T02:59:01.335Z,6.97
2019-04-07T03:00:05.158Z,6.96
2019-04-07T03:01:09.669Z,6.95
2019-04-07T03:02:14.283Z,6.95
2019-04-07T03:03:18.821Z,6.93
2019-04-07T03:04:23.082Z,6.91
2019-04-07T03:05:26.733Z,6.90
2019-04-07T03:06:42.419Z,6.89
2019-04-07T03:07:35.692Z,6.88
2019-04-07T03:08:39.641Z,6.87
2019-04-07T03:09:44.006Z,6.86
2019-04-07T03:10:47.566Z,6.85
2019-04-07T03:11:52.456Z,6.84
2019-04-07T03:12:59.013Z,6.83
2019-04-07T03:14:02.143Z,6.83
2019-04-07T03:15:06.983Z,6.83
2019-04-07T03:16:10.698Z,6.83
2019-04-07T03:17:15.837Z,6.82
2019-04-07T03:18:20.141Z,6.82
2019-04-07T03:19:23.607Z,6.81
2019-04-07T03:20:28.089Z,6.80
2019-04-07T03:21:32.963Z,6.79
2019-04-07T03:22:36.759Z,6.78
2019-04-07T03:23:41.429Z,6.76
2019-04-07T03:24:44.625Z,6.76
2019-04-07T03:25:48.919Z,6.75
2019-04-07T03:26:53.559Z,6.75
2019-04-07T03:27:57.450Z,6.74
2019-04-07T03:29:01.587Z,6.73
2019-04-07T03:30:06.397Z,6.72
2019-04-07T03:31:10.697Z,6.70
2019-04-07T03:32:18.317Z,6.69
2019-04-07T03:33:22.208Z,6.69
2019-04-07T03:34:25.343Z,6.69
2019-04-07T03:35:30.081Z,6.69
2019-04-07T03:36:41.087Z,6.69
2019-04-07T03:37:43.027Z,6.69
2019-04-07T03:38:41.097Z,6.69
2019-04-07T03:39:44.236Z,6.69
2019-04-07T03:40:49.620Z,6.69
2019-04-07T03:41:53.710Z,6.69
2019-04-07T03:42:57.368Z,6.69
2019-04-07T03:44:01.403Z,6.69
2019-04-07T03:45:06.123Z,6.69
2019-04-07T03:46:09.626Z,6.69
2019-04-07T03:47:14.356Z,6.69
2019-04-07T03:48:18.125Z,6.69
2019-04-07T03:49:23.341Z,6.69
2019-04-07T03:50:27.403Z,6.69
2019-04-07T03:51:31.907Z,6.69
2019-04-07T03:52:35.643Z,6.69
2019-04-07T03:53:39.716Z,6.69
2019-04-07T03:54:44.025Z,6.68
2019-04-07T03:55:48.049Z,6.67
2019-04-07T03:56:53.002Z,6.67
2019-04-07T03:57:56.964Z,6.66
2019-04-07T03:59:01.031Z,6.66
2019-04-07T04:00:05.884Z,6.65
2019-04-07T04:01:10.189Z,6.65
2019-04-07T04:02:14.215Z,6.64
2019-04-07T04:03:17.933Z,6.64
2019-04-07T04:04:22.487Z,6.63
2019-04-07T04:05:27.361Z,6.62
2019-04-07T04:06:30.723Z,6.61
2019-04-07T04:07:37.092Z,6.61
2019-04-07T04:08:39.104Z,6.61
2019-04-07T04:09:44.085Z,6.61
2019-04-07T04:10:48.481Z,6.62
2019-04-07T04:11:52.021Z,6.63
2019-04-07T04:12:56.574Z,6.63
2019-04-07T04:14:01.332Z,6.63
2019-04-07T04:15:04.760Z,6.62
2019-04-07T04:16:08.937Z,6.61
2019-04-07T04:17:13.111Z,6.60
2019-04-07T04:18:18.304Z,6.59
2019-04-07T04:19:21.460Z,6.58
2019-04-07T04:20:25.880Z,6.56
2019-04-07T04:21:30.902Z,6.55
2019-04-07T04:22:34.341Z,6.54
2019-04-07T04:23:41.644Z,6.53
2019-04-07T04:24:43.671Z,6.53
2019-04-07T04:25:47.097Z,6.53
2019-04-07T04:26:51.941Z,6.54
2019-04-07T04:27:55.443Z,6.54
2019-04-07T04:28:59.933Z,6.54
2019-04-07T04:30:04.922Z,6.54
2019-04-07T04:31:08.115Z,6.55
2019-04-07T04:32:13.432Z,6.55
2019-04-07T04:33:16.692Z,6.56
2019-04-07T04:34:20.985Z,6.56
2019-04-07T04:35:25.216Z,6.57
2019-04-07T04:36:29.503Z,6.57
2019-04-07T04:37:41.935Z,6.58
2019-04-07T04:38:38.545Z,6.58
2019-04-07T04:39:42.298Z,6.58
2019-04-07T04:40:46.577Z,6.59
2019-04-07T04:41:51.168Z,6.59
2019-04-07T04:42:55.252Z,6.59
2019-04-07T04:44:00.407Z,6.61
2019-04-07T04:45:06.654Z,6.61
2019-04-07T04:46:11.345Z,6.61
2019-04-07T04:47:14.026Z,6.62
2019-04-07T04:48:19.550Z,6.62
2019-04-07T04:49:23.286Z,6.63
2019-04-07T04:50:27.542Z,6.63
2019-04-07T04:51:35.089Z,6.63
2019-04-07T04:52:36.272Z,6.63
2019-04-07T04:53:39.770Z,6.63
2019-04-07T04:54:44.034Z,6.64
2019-04-07T04:55:48.335Z,6.63
2019-04-07T04:56:53.456Z,6.63
2019-04-07T04:57:57.768Z,6.63
2019-04-07T04:59:01.075Z,6.63
2019-04-07T05:00:05.418Z,6.63
2019-04-07T05:01:09.731Z,6.63
2019-04-07T05:02:13.750Z,6.63
2019-04-07T05:03:18.263Z,6.63
2019-04-07T05:04:22.973Z,6.62
2019-04-07T05:05:26.630Z,6.62
2019-04-07T05:06:31.199Z,6.62
2019-04-07T05:07:47.914Z,6.63
2019-04-07T05:08:39.476Z,6.64
2019-04-07T05:09:48.788Z,6.65
2019-04-07T05:10:48.255Z,6.66
2019-04-07T05:11:52.815Z,6.68
2019-04-07T05:12:57.189Z,6.70
2019-04-07T05:14:00.893Z,6.71
2019-04-07T05:15:05.131Z,6.73
2019-04-07T05:16:09.088Z,6.75
2019-04-07T05:17:13.442Z,6.77
2019-04-07T05:18:17.588Z,6.79
2019-04-07T05:19:22.362Z,6.81
2019-04-07T05:20:26.795Z,6.84
2019-04-07T05:21:30.407Z,6.85
2019-04-07T05:22:34.140Z,6.88
2019-04-07T05:23:38.533Z,6.90
2019-04-07T05:24:42.716Z,6.92
2019-04-07T05:25:46.888Z,6.93
2019-04-07T05:26:51.129Z,6.95
2019-04-07T05:27:55.865Z,6.98
2019-04-07T05:28:59.495Z,7.00
2019-04-07T05:30:04.317Z,7.03
2019-04-07T05:31:08.846Z,7.08
2019-04-07T05:32:12.321Z,7.16
2019-04-07T05:33:16.669Z,7.24
2019-04-07T05:34:22.241Z,7.37
2019-04-07T05:35:25.135Z,7.55
2019-04-07T05:36:30.276Z,7.78
2019-04-07T05:37:34.137Z,8.05
2019-04-07T05:38:38.723Z,8.30
2019-04-07T05:39:42.583Z,8.56
2019-04-07T05:40:47.486Z,8.82
2019-04-07T05:41:51.088Z,9.01
2019-04-07T05:42:55.537Z,9.17
2019-04-07T05:43:59.760Z,9.32
2019-04-07T05:45:04.139Z,9.41
2019-04-07T05:46:09.074Z,9.48
2019-04-07T05:47:14.405Z,9.59
2019-04-07T05:48:19.458Z,9.71
2019-04-07T05:49:23.246Z,9.80
2019-04-07T05:50:27.456Z,9.93
2019-04-07T05:51:31.281Z,10.02
2019-04-07T05:52:38.584Z,10.01
2019-04-07T05:53:38.860Z,9.96
2019-04-07T05:54:42.913Z,9.87
2019-04-07T05:55:47.550Z,9.76
2019-04-07T05:56:51.505Z,9.67
2019-04-07T05:57:55.552Z,9.59
2019-04-07T05:59:00.564Z,9.52
2019-04-07T06:00:04.391Z,9.50
2019-04-07T06:01:08.541Z,9.50
2019-04-07T06:02:13.218Z,9.53
2019-04-07T06:03:17.684Z,9.54
2019-04-07T06:04:21.701Z,9.59
2019-04-07T06:05:25.672Z,9.64
2019-04-07T06:06:30.054Z,9.67
2019-04-07T06:07:35.958Z,9.71
2019-04-07T06:08:40.040Z,9.75
2019-04-07T06:09:42.876Z,9.78
2019-04-07T06:10:47.239Z,9.80
2019-04-07T06:11:52.218Z,9.84
2019-04-07T06:12:56.532Z,9.88
2019-04-07T06:14:00.815Z,9.94
2019-04-07T06:15:05.243Z,9.97
2019-04-07T06:16:09.545Z,10.02
2019-04-07T06:17:13.168Z,10.08
2019-04-07T06:18:17.455Z,10.12
2019-04-07T06:19:21.815Z,10.16
2019-04-07T06:20:26.052Z,10.23
2019-04-07T06:21:31.183Z,10.25
2019-04-07T06:22:34.982Z,10.28
2019-04-07T06:23:39.543Z,10.34
2019-04-07T06:24:43.801Z,10.40
2019-04-07T06:25:47.707Z,10.45
2019-04-07T06:26:52.122Z,10.46
2019-04-07T06:27:56.856Z,10.49
2019-04-07T06:29:01.464Z,10.54
2019-04-07T06:30:05.083Z,10.59
2019-04-07T06:31:09.441Z,10.63
2019-04-07T06:32:14.368Z,10.64
2019-04-07T06:33:18.036Z,10.65
2019-04-07T06:34:22.657Z,10.68
2019-04-07T06:35:26.990Z,10.68
2019-04-07T06:36:31.016Z,10.67
2019-04-07T06:37:35.296Z,10.67
2019-04-07T06:38:43.631Z,10.68
2019-04-07T06:39:44.081Z,10.66
2019-04-07T06:40:50.848Z,10.64
2019-04-07T06:41:52.493Z,10.61
2019-04-07T06:42:56.839Z,10.59
2019-04-07T06:44:18.425Z,10.58
2019-04-07T06:45:20.698Z,10.57
2019-04-07T06:46:22.627Z,10.58
2019-04-07T06:47:25.169Z,10.60
2019-04-07T06:48:30.543Z,10.62
2019-04-07T06:49:33.822Z,10.64
2019-04-07T06:50:47.414Z,10.68
2019-04-07T06:51:42.473Z,10.73
2019-04-07T06:52:46.697Z,10.76
2019-04-07T06:53:51.448Z,10.78
2019-04-07T06:54:56.280Z,10.83
2019-04-07T06:56:02.245Z,10.86
2019-04-07T06:57:06.053Z,10.91
2019-04-07T06:58:08.470Z,10.94
2019-04-07T06:59:15.426Z,10.98
2019-04-07T07:00:17.431Z,11.02
2019-04-07T07:01:24.528Z,11.06
2019-04-07T07:02:27.003Z,11.08
2019-04-07T07:03:33.544Z,11.11
2019-04-07T07:04:34.083Z,11.13
2019-04-07T07:05:38.785Z,11.16
2019-04-07T07:06:46.089Z,11.20
2019-04-07T07:07:48.224Z,11.25
2019-04-07T07:08:54.086Z,11.29
2019-04-07T07:09:59.679Z,11.33
2019-04-07T07:10:59.730Z,11.36
2019-04-07T07:12:04.139Z,11.39
2019-04-07T07:13:11.771Z,11.43
2019-04-07T07:14:16.209Z,11.46
2019-04-07T07:15:16.857Z,11.50
2019-04-07T07:16:21.821Z,11.53
2019-04-07T07:17:25.875Z,11.57
2019-04-07T07:18:30.648Z,11.62
2019-04-07T07:19:34.674Z,11.65
2019-04-07T07:20:39.350Z,11.68
2019-04-07T07:21:43.507Z,11.71
2019-04-07T07:22:48.701Z,11.76
2019-04-07T07:23:51.597Z,11.77
2019-04-07T07:24:59.058Z,11.80
2019-04-07T07:26:02.835Z,11.84
2019-04-07T07:27:07.291Z,11.88
2019-04-07T07:28:11.535Z,11.92
2019-04-07T07:29:14.756Z,11.96
2019-04-07T07:30:18.365Z,12.00
2019-04-07T07:31:24.716Z,12.04
2019-04-07T07:32:25.960Z,12.06
2019-04-07T07:33:30.261Z,12.07
2019-04-07T07:34:34.562Z,12.10
2019-04-07T07:35:38.913Z,12.15
2019-04-07T07:36:43.246Z,12.19
2019-04-07T07:37:48.349Z,12.25
2019-04-07T07:38:59.060Z,12.30
2019-04-07T07:39:56.399Z,12.35
2019-04-07T07:41:02.130Z,12.39
2019-04-07T07:42:04.744Z,12.43
2019-04-07T07:43:09.711Z,12.46
2019-04-07T07:44:13.418Z,12.50
2019-04-07T07:45:17.568Z,12.54
2019-04-07T07:46:23.559Z,12.57
2019-04-07T07:47:26.376Z,12.61
2019-04-07T07:48:31.401Z,12.66
2019-04-07T07:49:39.848Z,12.71
2019-04-07T07:50:40.442Z,12.76
2019-04-07T07:51:46.355Z,12.80
2019-04-07T07:52:51.328Z,12.83
2019-04-07T07:53:52.685Z,12.85
2019-04-07T07:54:59.788Z,12.88
2019-04-07T07:56:01.018Z,12.91
2019-04-07T07:57:05.129Z,12.94
2019-04-07T07:58:09.574Z,12.98
2019-04-07T07:59:13.905Z,13.00
2019-04-07T08:00:18.819Z,13.03
2019-04-07T08:01:22.611Z,13.08
2019-04-07T08:02:29.075Z,13.10
2019-04-07T08:03:31.518Z,13.15
2019-04-07T08:04:35.690Z,13.20
2019-04-07T08:05:40.869Z,13.25
2019-04-07T08:06:44.719Z,13.27
2019-04-07T08:07:50.188Z,13.31
2019-04-07T08:08:53.658Z,13.35
2019-04-07T08:09:58.068Z,13.38
2019-04-07T08:11:02.717Z,13.43
2019-04-07T08:12:06.324Z,13.47
2019-04-07T08:13:10.383Z,13.50
2019-04-07T08:14:17.944Z,13.53
2019-04-07T08:15:22.864Z,13.57
2019-04-07T08:16:23.930Z,13.60
2019-04-07T08:17:27.811Z,13.64
2019-04-07T08:18:32.088Z,13.67
2019-04-07T08:19:40.680Z,13.69
2019-04-07T08:20:44.921Z,13.74
2019-04-07T08:21:45.603Z,13.79
2019-04-07T08:22:50.370Z,13.83
2019-04-07T08:23:54.576Z,13.88
2019-04-07T08:24:58.812Z,13.91
2019-04-07T08:26:02.811Z,13.96
2019-04-07T08:27:07.349Z,14.00
2019-04-07T08:28:11.413Z,14.06
2019-04-07T08:29:15.813Z,14.09
2019-04-07T08:30:20.188Z,14.14
2019-04-07T08:31:25.069Z,14.17
2019-04-07T08:32:31.754Z,14.21
2019-04-07T08:33:33.277Z,14.24
2019-04-07T08:34:37.626Z,14.26
2019-04-07T08:35:42.643Z,14.28
2019-04-07T08:36:47.262Z,14.31
2019-04-07T08:37:50.737Z,14.36
2019-04-07T08:38:56.867Z,14.40
2019-04-07T08:39:59.492Z,14.44
2019-04-07T08:41:04.205Z,14.47
2019-04-07T08:42:11.154Z,14.51
2019-04-07T08:43:12.617Z,14.55
2019-04-07T08:44:17.162Z,14.58
2019-04-07T08:45:21.195Z,14.62
2019-04-07T08:46:26.416Z,14.65
2019-04-07T08:47:30.230Z,14.69
2019-04-07T08:48:34.264Z,14.73
2019-04-07T08:49:38.655Z,14.78
2019-04-07T08:50:42.953Z,14.83
2019-04-07T08:51:47.294Z,14.88
2019-04-07T08:52:52.209Z,14.93
2019-04-07T08:53:55.951Z,14.98
2019-04-07T08:55:00.286Z,15.01
2019-04-07T08:56:07.399Z,15.04
2019-04-07T08:57:09.614Z,15.08
2019-04-07T08:58:24.419Z,15.11
2019-04-07T08:59:18.322Z,15.14
2019-04-07T09:00:22.087Z,15.18
2019-04-07T09:01:28.760Z,15.21
2019-04-07T09:02:31.268Z,15.26
2019-04-07T09:03:35.841Z,15.30
2019-04-07T09:04:39.916Z,15.35
2019-04-07T09:05:44.467Z,15.38
2019-04-07T09:06:48.858Z,15.40
2019-04-07T09:07:52.865Z,15.42
2019-04-07T09:08:57.384Z,15.43
2019-04-07T09:10:01.425Z,15.46
2019-04-07T09:11:05.760Z,15.49
2019-04-07T09:12:10.388Z,15.52
2019-04-07T09:13:14.538Z,15.56
2019-04-07T09:14:18.915Z,15.63
2019-04-07T09:15:23.487Z,15.68
2019-04-07T09:16:28.032Z,15.73
2019-04-07T09:17:38.508Z,15.77
2019-04-07T09:18:36.725Z,15.80
2019-04-07T09:19:41.445Z,15.83
2019-04-07T09:20:48.415Z,15.86
2019-04-07T09:21:51.754Z,15.90
2019-04-07T09:22:56.654Z,15.97
2019-04-07T09:23:58.189Z,16.06
2019-04-07T09:25:06.315Z,16.18
2019-04-07T09:26:09.490Z,16.33
2019-04-07T09:27:14.661Z,16.47
2019-04-07T09:28:19.930Z,16.59
2019-04-07T09:29:21.011Z,16.68
2019-04-07T09:30:24.989Z,16.76
2019-04-07T09:31:29.294Z,16.82
2019-04-07T09:32:33.525Z,16.85
2019-04-07T09:33:38.780Z,16.87
2019-04-07T09:34:42.303Z,16.87
2019-04-07T09:35:46.669Z,16.87
2019-04-07T09:36:51.404Z,16.87
2019-04-07T09:37:55.976Z,16.87
2019-04-07T09:39:02.769Z,16.86
2019-04-07T09:40:05.394Z,16.87
2019-04-07T09:41:08.619Z,16.91
2019-04-07T09:42:13.761Z,16.96
2019-04-07T09:43:18.936Z,17.00
2019-04-07T09:44:22.030Z,17.04
2019-04-07T09:45:26.475Z,17.09
2019-04-07T09:46:31.130Z,17.11
2019-04-07T09:47:34.890Z,17.14
2019-04-07T09:48:40.333Z,17.17
2019-04-07T09:49:48.163Z,17.20
2019-04-07T09:50:48.198Z,17.24
2019-04-07T09:51:52.851Z,17.26
2019-04-07T09:52:56.885Z,17.29
2019-04-07T09:54:01.306Z,17.33
2019-04-07T09:55:08.337Z,17.40
2019-04-07T09:56:11.944Z,17.45
2019-04-07T09:57:14.471Z,17.51
2019-04-07T09:58:19.283Z,17.56
2019-04-07T09:59:23.946Z,17.62
2019-04-07T10:00:27.846Z,17.66
2019-04-07T10:01:32.980Z,17.70
2019-04-07T10:02:37.186Z,17.74
2019-04-07T10:03:41.001Z,17.76
2019-04-07T10:04:45.418Z,17.77
2019-04-07T10:05:49.810Z,17.80
2019-04-07T10:06:54.221Z,17.85
2019-04-07T10:07:58.973Z,17.89
2019-04-07T10:09:03.310Z,17.94
2019-04-07T10:10:12.278Z,17.99
2019-04-07T10:11:11.842Z,18.04
2019-04-07T10:12:16.188Z,18.09
2019-04-07T10:13:20.596Z,18.14
2019-04-07T10:14:25.794Z,18.18
2019-04-07T10:15:29.670Z,18.20
2019-04-07T10:16:35.137Z,18.22
2019-04-07T10:17:38.457Z,18.25
2019-04-07T10:18:42.940Z,18.26
2019-04-07T10:19:47.790Z,18.28
2019-04-07T10:20:51.541Z,18.32
2019-04-07T10:21:56.210Z,18.36
2019-04-07T10:23:00.673Z,18.39
2019-04-07T10:24:05.251Z,18.41
2019-04-07T10:25:09.296Z,18.41
2019-04-07T10:26:13.480Z,18.43
2019-04-07T10:27:18.697Z,18.47
2019-04-07T10:28:22.422Z,18.55
2019-04-07T10:29:27.551Z,18.68
2019-04-07T10:30:31.629Z,18.85
2019-04-07T10:31:35.519Z,18.98
2019-04-07T10:32:40.635Z,19.04
2019-04-07T10:33:44.351Z,19.07
2019-04-07T10:34:48.803Z,19.09
2019-04-07T10:35:53.205Z,19.08
2019-04-07T10:36:57.901Z,19.05
2019-04-07T10:38:02.187Z,19.03
2019-04-07T10:39:07.226Z,19.01
2019-04-07T10:40:18.882Z,18.98
2019-04-07T10:41:15.935Z,18.96
2019-04-07T10:42:20.143Z,18.95
2019-04-07T10:43:25.043Z,18.93
2019-04-07T10:44:29.213Z,18.91
2019-04-07T10:45:33.085Z,18.88
2019-04-07T10:46:37.564Z,18.86
2019-04-07T10:47:41.940Z,18.86
2019-04-07T10:48:46.746Z,18.85
2019-04-07T10:49:58.519Z,18.86
2019-04-07T10:50:55.558Z,18.88
2019-04-07T10:51:59.453Z,18.89
2019-04-07T10:53:03.870Z,18.91
2019-04-07T10:54:08.237Z,18.92
2019-04-07T10:55:13.048Z,18.94
2019-04-07T10:56:17.161Z,18.94
2019-04-07T10:57:22.179Z,18.87
2019-04-07T10:58:26.544Z,18.90
2019-04-07T10:59:30.825Z,18.92
2019-04-07T11:00:34.686Z,18.93
2019-04-07T11:01:39.775Z,18.95
2019-04-07T11:02:44.245Z,18.97
2019-04-07T11:03:48.663Z,19.00
2019-04-07T11:04:52.821Z,19.03
2019-04-07T11:05:57.142Z,19.05
2019-04-07T11:07:01.927Z,19.05
2019-04-07T11:08:06.068Z,19.03
2019-04-07T11:09:10.017Z,18.99
2019-04-07T11:10:14.400Z,18.98
2019-04-07T11:11:19.057Z,19.00
2019-04-07T11:12:23.259Z,19.00
2019-04-07T11:13:27.681Z,19.02
2019-04-07T11:14:32.059Z,19.03
2019-04-07T11:15:37.038Z,19.05
2019-04-07T11:16:40.804Z,19.03
2019-04-07T11:17:45.274Z,19.06
2019-04-07T11:18:50.361Z,19.08
2019-04-07T11:19:54.770Z,19.07
2019-04-07T11:20:58.382Z,19.01
2019-04-07T11:22:02.788Z,18.97
2019-04-07T11:23:07.397Z,18.94
2019-04-07T11:24:12.301Z,18.94
2019-04-07T11:25:16.466Z,18.97
2019-04-07T11:26:20.853Z,18.96
2019-04-07T11:27:25.478Z,18.96
2019-04-07T11:28:29.375Z,19.03
2019-04-07T11:29:35.396Z,19.06
2019-04-07T11:30:38.708Z,19.10
2019-04-07T11:31:42.911Z,19.15
2019-04-07T11:32:47.815Z,19.17
2019-04-07T11:33:52.423Z,19.18
2019-04-07T11:34:55.934Z,19.27
2019-04-07T11:36:00.696Z,19.40
2019-04-07T11:37:04.974Z,19.57
2019-04-07T11:38:09.264Z,19.71
2019-04-07T11:39:13.643Z,19.82
2019-04-07T11:40:18.245Z,19.85
2019-04-07T11:41:25.379Z,19.83
2019-04-07T11:42:26.855Z,19.90
2019-04-07T11:43:31.506Z,19.95
2019-04-07T11:44:35.749Z,19.97
2019-04-07T11:45:52.239Z,20.01
2019-04-07T11:46:45.004Z,20.07
2019-04-07T11:47:49.278Z,20.15
2019-04-07T11:48:53.343Z,20.15
2019-04-07T11:49:58.196Z,20.22
2019-04-07T11:51:03.229Z,20.23
2019-04-07T11:52:07.148Z,20.27
2019-04-07T11:53:11.148Z,20.29
2019-04-07T11:54:15.439Z,20.31
2019-04-07T11:55:19.878Z,20.37
2019-04-07T11:56:24.904Z,20.40
2019-04-07T11:57:29.016Z,20.51
2019-04-07T11:58:34.648Z,20.57
2019-04-07T11:59:37.807Z,20.65
2019-04-07T12:00:42.102Z,20.72
2019-04-07T12:01:49.491Z,20.79
2019-04-07T12:02:51.843Z,20.82
2019-04-07T12:03:55.807Z,20.87
2019-04-07T12:04:59.989Z,20.88
2019-04-07T12:06:04.079Z,20.93
2019-04-07T12:07:08.932Z,20.91
2019-04-07T12:08:12.914Z,20.96
2019-04-07T12:09:17.592Z,21.00
2019-04-07T12:10:22.475Z,21.07
2019-04-07T12:11:26.245Z,21.10
2019-04-07T12:12:31.100Z,21.08
2019-04-07T12:13:35.091Z,21.07
2019-04-07T12:14:39.512Z,21.04
2019-04-07T12:15:44.100Z,21.04
2019-04-07T12:16:49.170Z,21.05
2019-04-07T12:17:53.492Z,21.12
2019-04-07T12:18:57.859Z,21.17
2019-04-07T12:20:01.762Z,21.26
2019-04-07T12:21:07.624Z,21.30
2019-04-07T12:22:13.173Z,21.18
2019-04-07T12:23:20.963Z,21.09
2019-04-07T12:24:24.602Z,21.12
2019-04-07T12:25:24.150Z,21.09
2019-04-07T12:26:28.594Z,21.17
2019-04-07T12:27:33.370Z,21.26
2019-04-07T12:28:37.655Z,21.39
2019-04-07T12:29:42.800Z,21.48
2019-04-07T12:30:46.967Z,21.56
2019-04-07T12:31:51.061Z,21.58
2019-04-07T12:32:55.452Z,21.61
2019-04-07T12:33:59.906Z,21.55
2019-04-07T12:35:05.213Z,21.55
2019-04-07T12:36:09.431Z,21.60
2019-04-07T12:37:13.190Z,21.68
2019-04-07T12:38:17.718Z,21.72
2019-04-07T12:39:22.318Z,21.79
2019-04-07T12:40:26.499Z,21.82
2019-04-07T12:41:32.015Z,21.81
2019-04-07T12:42:35.694Z,21.86
2019-04-07T12:43:40.404Z,21.99
2019-04-07T12:44:44.226Z,21.99
2019-04-07T12:45:49.353Z,21.94
2019-04-07T12:46:53.807Z,21.91
2019-04-07T12:47:58.332Z,21.89
2019-04-07T12:49:05.416Z,21.85
2019-04-07T12:50:06.402Z,21.81
2019-04-07T12:51:12.225Z,21.73
2019-04-07T12:52:15.332Z,21.70
2019-04-07T12:53:19.759Z,21.80
2019-04-07T12:54:24.136Z,21.79
2019-04-07T12:55:29.393Z,21.88
2019-04-07T12:56:34.248Z,21.92
2019-04-07T12:57:39.576Z,21.89
2019-04-07T12:58:45.070Z,21.90
2019-04-07T12:59:48.710Z,21.92
2019-04-07T13:00:57.799Z,21.93
2019-04-07T13:01:55.311Z,21.93
2019-04-07T13:02:59.824Z,21.91
2019-04-07T13:04:04.679Z,21.88
2019-04-07T13:05:08.755Z,21.84
2019-04-07T13:06:13.085Z,21.81
2019-04-07T13:07:19.728Z,21.83
2019-04-07T13:08:23.987Z,21.80
2019-04-07T13:09:29.663Z,21.82
2019-04-07T13:10:32.537Z,21.88
2019-04-07T13:11:39.507Z,21.78
2019-04-07T13:12:39.812Z,21.77
2019-04-07T13:13:44.907Z,21.76
2019-04-07T13:14:49.095Z,21.59
2019-04-07T13:15:53.776Z,21.53
2019-04-07T13:17:00.121Z,21.59
2019-04-07T13:18:05.237Z,21.60
2019-04-07T13:19:09.601Z,21.54
2019-04-07T13:20:10.915Z,21.56
2019-04-07T13:21:15.533Z,21.60
2019-04-07T13:22:20.439Z,21.75
2019-04-07T13:23:24.166Z,21.95
2019-04-07T13:24:33.685Z,22.08
2019-04-07T13:25:33.032Z,22.08
2019-04-07T13:26:37.506Z,22.08
2019-04-07T13:27:42.745Z,22.07
2019-04-07T13:28:46.434Z,22.03
2019-04-07T13:29:51.806Z,21.91
2019-04-07T13:30:56.271Z,21.90
2019-04-07T13:32:00.167Z,21.92
2019-04-07T13:33:04.599Z,21.93
2019-04-07T13:34:09.405Z,21.95
2019-04-07T13:35:13.224Z,22.00
2019-04-07T13:36:17.674Z,21.83
2019-04-07T13:37:22.102Z,21.83
2019-04-07T13:38:26.595Z,21.83
2019-04-07T13:39:33.354Z,21.78
2019-04-07T13:40:36.162Z,21.75
2019-04-07T13:41:45.795Z,21.77
2019-04-07T13:42:44.501Z,21.81
2019-04-07T13:43:48.719Z,21.77
2019-04-07T13:44:53.743Z,21.74
2019-04-07T13:45:57.585Z,21.76
2019-04-07T13:47:06.429Z,21.73
2019-04-07T13:48:06.461Z,21.67
2019-04-07T13:49:11.751Z,21.60
2019-04-07T13:50:16.370Z,21.52
2019-04-07T13:51:19.758Z,21.48
2019-04-07T13:52:24.676Z,21.45
2019-04-07T13:53:30.607Z,21.38
2019-04-07T13:54:33.855Z,21.42
2019-04-07T13:55:41.078Z,21.46
2019-04-07T13:56:41.926Z,21.39
2019-04-07T13:57:46.460Z,21.33
2019-04-07T13:58:50.948Z,21.19
2019-04-07T13:59:57.029Z,21.00